sensor_id;sensor_type;location;lat;lon;timestamp;temperature;humidity
74153;DHT22;62505;46.070;14.492;2024-01-07T00:00:51;22.40;67.80
74153;DHT22;62505;46.070;14.492;2024-01-07T00:03:18;22.40;67.80
74153;DHT22;62505;46.070;14.492;2024-01-07T00:05:46;22.40;67.80
74153;DHT22;62505;46.070;14.492;2024-01-07T00:08:13;22.40;67.80
74153;DHT22;62505;46.070;14.492;2024-01-07T00:10:40;22.40;67.80
74153;DHT22;62505;46.070;14.492;2024-01-07T00:13:07;22.40;67.80
74153;DHT22;62505;46.070;14.492;2024-01-07T00:15:34;22.40;67.80
74153;DHT22;62505;46.070;14.492;2024-01-07T00:18:01;22.40;67.70
74153;DHT22;62505;46.070;14.492;2024-01-07T00:20:29;22.40;67.80
74153;DHT22;62505;46.070;14.492;2024-01-07T00:22:57;22.40;67.80
74153;DHT22;62505;46.070;14.492;2024-01-07T00:25:24;22.40;67.70
74153;DHT22;62505;46.070;14.492;2024-01-07T00:27:51;22.40;67.80
74153;DHT22;62505;46.070;14.492;2024-01-07T00:30:21;22.40;67.70
74153;DHT22;62505;46.070;14.492;2024-01-07T00:32:48;22.40;67.70
74153;DHT22;62505;46.070;14.492;2024-01-07T00:35:16;22.40;67.70
74153;DHT22;62505;46.070;14.492;2024-01-07T00:37:43;22.40;67.80
74153;DHT22;62505;46.070;14.492;2024-01-07T00:40:12;22.40;67.70
74153;DHT22;62505;46.070;14.492;2024-01-07T00:42:39;22.40;67.80
74153;DHT22;62505;46.070;14.492;2024-01-07T00:45:07;22.40;67.70
74153;DHT22;62505;46.070;14.492;2024-01-07T00:47:35;22.40;67.70
74153;DHT22;62505;46.070;14.492;2024-01-07T00:50:02;22.40;67.70
74153;DHT22;62505;46.070;14.492;2024-01-07T00:52:29;22.40;67.70
74153;DHT22;62505;46.070;14.492;2024-01-07T00:54:55;22.40;67.80
74153;DHT22;62505;46.070;14.492;2024-01-07T00:57:24;22.40;67.70
74153;DHT22;62505;46.070;14.492;2024-01-07T00:59:51;22.40;67.80
74153;DHT22;62505;46.070;14.492;2024-01-07T01:02:18;22.40;67.70
74153;DHT22;62505;46.070;14.492;2024-01-07T01:04:45;22.40;67.60
74153;DHT22;62505;46.070;14.492;2024-01-07T01:07:12;22.40;67.50
74153;DHT22;62505;46.070;14.492;2024-01-07T01:09:39;22.40;67.60
74153;DHT22;62505;46.070;14.492;2024-01-07T01:12:06;22.40;67.60
74153;DHT22;62505;46.070;14.492;2024-01-07T01:14:34;22.50;68.90
74153;DHT22;62505;46.070;14.492;2024-01-07T01:17:01;22.60;68.60
74153;DHT22;62505;46.070;14.492;2024-01-07T01:19:28;22.50;67.80
74153;DHT22;62505;46.070;14.492;2024-01-07T01:21:55;22.50;67.80
74153;DHT22;62505;46.070;14.492;2024-01-07T01:24:22;22.50;68.70
74153;DHT22;62505;46.070;14.492;2024-01-07T01:26:49;22.60;69.20
74153;DHT22;62505;46.070;14.492;2024-01-07T01:29:16;22.60;69.30
74153;DHT22;62505;46.070;14.492;2024-01-07T01:31:44;22.60;69.00
74153;DHT22;62505;46.070;14.492;2024-01-07T01:34:11;22.60;69.20
74153;DHT22;62505;46.070;14.492;2024-01-07T01:36:38;22.60;69.20
74153;DHT22;62505;46.070;14.492;2024-01-07T01:39:05;22.70;69.10
74153;DHT22;62505;46.070;14.492;2024-01-07T01:41:33;22.70;69.00
74153;DHT22;62505;46.070;14.492;2024-01-07T01:44:00;22.70;69.50
74153;DHT22;62505;46.070;14.492;2024-01-07T01:46:29;22.70;69.50
74153;DHT22;62505;46.070;14.492;2024-01-07T01:48:57;22.70;69.30
74153;DHT22;62505;46.070;14.492;2024-01-07T01:51:24;22.70;69.50
74153;DHT22;62505;46.070;14.492;2024-01-07T01:53:52;22.70;69.30
74153;DHT22;62505;46.070;14.492;2024-01-07T01:56:20;22.70;69.30
74153;DHT22;62505;46.070;14.492;2024-01-07T01:58:47;22.70;69.20
74153;DHT22;62505;46.070;14.492;2024-01-07T02:01:14;22.70;69.30
74153;DHT22;62505;46.070;14.492;2024-01-07T02:03:41;22.70;69.70
74153;DHT22;62505;46.070;14.492;2024-01-07T02:06:10;22.70;69.60
74153;DHT22;62505;46.070;14.492;2024-01-07T02:08:38;22.70;69.50
74153;DHT22;62505;46.070;14.492;2024-01-07T02:11:15;22.70;68.50
74153;DHT22;62505;46.070;14.492;2024-01-07T02:13:43;22.70;68.00
74153;DHT22;62505;46.070;14.492;2024-01-07T02:16:10;22.60;67.60
74153;DHT22;62505;46.070;14.492;2024-01-07T02:18:37;22.60;67.30
74153;DHT22;62505;46.070;14.492;2024-01-07T02:21:05;22.60;66.90
74153;DHT22;62505;46.070;14.492;2024-01-07T02:23:35;22.60;66.80
74153;DHT22;62505;46.070;14.492;2024-01-07T02:26:03;22.60;66.50
74153;DHT22;62505;46.070;14.492;2024-01-07T02:28:31;22.60;66.30
74153;DHT22;62505;46.070;14.492;2024-01-07T02:30:58;22.60;65.90
74153;DHT22;62505;46.070;14.492;2024-01-07T02:33:25;22.60;65.70
74153;DHT22;62505;46.070;14.492;2024-01-07T02:35:52;22.50;65.50
74153;DHT22;62505;46.070;14.492;2024-01-07T02:38:19;22.60;65.40
74153;DHT22;62505;46.070;14.492;2024-01-07T02:40:46;22.50;65.00
74153;DHT22;62505;46.070;14.492;2024-01-07T02:43:14;22.50;64.90
74153;DHT22;62505;46.070;14.492;2024-01-07T02:45:41;22.50;64.60
74153;DHT22;62505;46.070;14.492;2024-01-07T02:48:09;22.50;64.60
74153;DHT22;62505;46.070;14.492;2024-01-07T02:50:36;22.50;64.20
74153;DHT22;62505;46.070;14.492;2024-01-07T02:53:03;22.50;63.90
74153;DHT22;62505;46.070;14.492;2024-01-07T02:55:30;22.50;63.60
74153;DHT22;62505;46.070;14.492;2024-01-07T02:57:57;22.50;63.70
74153;DHT22;62505;46.070;14.492;2024-01-07T03:00:26;22.40;63.50
74153;DHT22;62505;46.070;14.492;2024-01-07T03:02:52;22.50;63.40
74153;DHT22;62505;46.070;14.492;2024-01-07T03:05:19;22.50;63.40
74153;DHT22;62505;46.070;14.492;2024-01-07T03:07:46;22.50;63.30
74153;DHT22;62505;46.070;14.492;2024-01-07T03:10:13;22.50;63.10
74153;DHT22;62505;46.070;14.492;2024-01-07T03:12:41;22.50;63.20
74153;DHT22;62505;46.070;14.492;2024-01-07T03:15:08;22.50;63.10
74153;DHT22;62505;46.070;14.492;2024-01-07T03:17:36;22.50;63.10
74153;DHT22;62505;46.070;14.492;2024-01-07T03:20:04;22.50;62.90
74153;DHT22;62505;46.070;14.492;2024-01-07T03:22:31;22.50;62.90
74153;DHT22;62505;46.070;14.492;2024-01-07T03:24:58;22.50;62.70
74153;DHT22;62505;46.070;14.492;2024-01-07T03:27:25;22.40;62.70
74153;DHT22;62505;46.070;14.492;2024-01-07T03:29:52;22.50;62.40
74153;DHT22;62505;46.070;14.492;2024-01-07T03:32:19;22.50;62.40
74153;DHT22;62505;46.070;14.492;2024-01-07T03:34:47;22.40;62.10
74153;DHT22;62505;46.070;14.492;2024-01-07T03:37:14;22.40;62.10
74153;DHT22;62505;46.070;14.492;2024-01-07T03:39:43;22.40;62.40
74153;DHT22;62505;46.070;14.492;2024-01-07T03:42:10;22.40;61.90
74153;DHT22;62505;46.070;14.492;2024-01-07T03:44:37;22.40;62.00
74153;DHT22;62505;46.070;14.492;2024-01-07T03:47:05;22.40;61.90
74153;DHT22;62505;46.070;14.492;2024-01-07T03:49:32;22.40;61.80
74153;DHT22;62505;46.070;14.492;2024-01-07T03:52:00;22.40;61.80
74153;DHT22;62505;46.070;14.492;2024-01-07T03:54:27;22.40;61.70
74153;DHT22;62505;46.070;14.492;2024-01-07T03:56:54;22.40;61.50
74153;DHT22;62505;46.070;14.492;2024-01-07T03:59:21;22.40;61.60
74153;DHT22;62505;46.070;14.492;2024-01-07T04:01:50;22.40;61.50
74153;DHT22;62505;46.070;14.492;2024-01-07T04:04:17;22.40;61.50
74153;DHT22;62505;46.070;14.492;2024-01-07T04:06:44;22.40;61.40
74153;DHT22;62505;46.070;14.492;2024-01-07T04:09:12;22.40;61.30
74153;DHT22;62505;46.070;14.492;2024-01-07T04:11:40;22.40;61.20
74153;DHT22;62505;46.070;14.492;2024-01-07T04:14:07;22.40;61.10
74153;DHT22;62505;46.070;14.492;2024-01-07T04:16:34;22.40;61.20
74153;DHT22;62505;46.070;14.492;2024-01-07T04:19:01;22.40;60.90
74153;DHT22;62505;46.070;14.492;2024-01-07T04:21:28;22.40;60.60
74153;DHT22;62505;46.070;14.492;2024-01-07T04:23:55;22.40;60.80
74153;DHT22;62505;46.070;14.492;2024-01-07T04:26:24;22.40;60.60
74153;DHT22;62505;46.070;14.492;2024-01-07T04:28:50;22.40;60.50
74153;DHT22;62505;46.070;14.492;2024-01-07T04:31:17;22.40;60.50
74153;DHT22;62505;46.070;14.492;2024-01-07T04:33:45;22.40;60.30
74153;DHT22;62505;46.070;14.492;2024-01-07T04:36:12;22.40;60.20
74153;DHT22;62505;46.070;14.492;2024-01-07T04:38:39;22.40;60.20
74153;DHT22;62505;46.070;14.492;2024-01-07T04:41:06;22.40;60.10
74153;DHT22;62505;46.070;14.492;2024-01-07T04:43:35;22.40;60.60
74153;DHT22;62505;46.070;14.492;2024-01-07T04:46:03;22.40;60.30
74153;DHT22;62505;46.070;14.492;2024-01-07T04:48:31;22.40;60.00
74153;DHT22;62505;46.070;14.492;2024-01-07T04:50:58;22.40;60.00
74153;DHT22;62505;46.070;14.492;2024-01-07T04:53:25;22.40;59.90
74153;DHT22;62505;46.070;14.492;2024-01-07T04:55:52;22.40;59.90
74153;DHT22;62505;46.070;14.492;2024-01-07T04:58:19;22.40;60.00
74153;DHT22;62505;46.070;14.492;2024-01-07T05:00:47;22.40;59.90
74153;DHT22;62505;46.070;14.492;2024-01-07T05:03:14;22.40;59.90
74153;DHT22;62505;46.070;14.492;2024-01-07T05:05:41;22.40;60.00
74153;DHT22;62505;46.070;14.492;2024-01-07T05:08:08;22.40;59.90
74153;DHT22;62505;46.070;14.492;2024-01-07T05:10:35;22.40;59.90
74153;DHT22;62505;46.070;14.492;2024-01-07T05:13:02;22.40;60.00
74153;DHT22;62505;46.070;14.492;2024-01-07T05:15:32;22.30;59.70
74153;DHT22;62505;46.070;14.492;2024-01-07T05:18:00;22.40;59.90
74153;DHT22;62505;46.070;14.492;2024-01-07T05:20:27;22.40;59.70
74153;DHT22;62505;46.070;14.492;2024-01-07T05:22:54;22.30;59.70
74153;DHT22;62505;46.070;14.492;2024-01-07T05:25:21;22.40;60.00
74153;DHT22;62505;46.070;14.492;2024-01-07T05:27:48;22.40;59.90
74153;DHT22;62505;46.070;14.492;2024-01-07T05:30:15;22.40;60.60
74153;DHT22;62505;46.070;14.492;2024-01-07T05:32:42;22.40;60.10
74153;DHT22;62505;46.070;14.492;2024-01-07T05:35:11;22.40;59.90
74153;DHT22;62505;46.070;14.492;2024-01-07T05:37:38;22.40;59.80
74153;DHT22;62505;46.070;14.492;2024-01-07T05:40:06;22.40;59.50
74153;DHT22;62505;46.070;14.492;2024-01-07T05:42:33;22.30;59.60
74153;DHT22;62505;46.070;14.492;2024-01-07T05:45:00;22.40;59.80
74153;DHT22;62505;46.070;14.492;2024-01-07T05:47:28;22.30;59.40
74153;DHT22;62505;46.070;14.492;2024-01-07T05:49:55;22.40;59.70
74153;DHT22;62505;46.070;14.492;2024-01-07T05:52:24;22.40;59.50
74153;DHT22;62505;46.070;14.492;2024-01-07T05:54:51;22.40;59.50
74153;DHT22;62505;46.070;14.492;2024-01-07T05:57:18;22.40;59.40
74153;DHT22;62505;46.070;14.492;2024-01-07T05:59:45;22.40;59.40
74153;DHT22;62505;46.070;14.492;2024-01-07T06:02:12;22.30;59.30
74153;DHT22;62505;46.070;14.492;2024-01-07T06:04:39;22.30;59.20
74153;DHT22;62505;46.070;14.492;2024-01-07T06:07:06;22.30;59.20
74153;DHT22;62505;46.070;14.492;2024-01-07T06:09:35;22.30;59.30
74153;DHT22;62505;46.070;14.492;2024-01-07T06:12:02;22.40;59.30
74153;DHT22;62505;46.070;14.492;2024-01-07T06:14:29;22.30;59.10
74153;DHT22;62505;46.070;14.492;2024-01-07T06:16:56;22.30;59.40
74153;DHT22;62505;46.070;14.492;2024-01-07T06:19:23;22.30;59.60
74153;DHT22;62505;46.070;14.492;2024-01-07T06:21:50;22.30;59.10
74153;DHT22;62505;46.070;14.492;2024-01-07T06:24:17;22.30;58.90
74153;DHT22;62505;46.070;14.492;2024-01-07T06:26:45;22.30;58.80
74153;DHT22;62505;46.070;14.492;2024-01-07T06:29:12;22.30;59.10
74153;DHT22;62505;46.070;14.492;2024-01-07T06:31:43;22.30;58.90
74153;DHT22;62505;46.070;14.492;2024-01-07T06:34:11;22.30;58.80
74153;DHT22;62505;46.070;14.492;2024-01-07T06:36:39;22.30;58.80
74153;DHT22;62505;46.070;14.492;2024-01-07T06:39:06;22.30;58.80
74153;DHT22;62505;46.070;14.492;2024-01-07T06:41:34;22.30;58.80
74153;DHT22;62505;46.070;14.492;2024-01-07T06:44:02;22.30;59.20
74153;DHT22;62505;46.070;14.492;2024-01-07T06:46:29;22.30;58.80
74153;DHT22;62505;46.070;14.492;2024-01-07T06:48:56;22.30;59.40
74153;DHT22;62505;46.070;14.492;2024-01-07T06:51:23;22.30;58.90
74153;DHT22;62505;46.070;14.492;2024-01-07T06:53:50;22.30;58.80
74153;DHT22;62505;46.070;14.492;2024-01-07T06:56:17;22.30;58.70
74153;DHT22;62505;46.070;14.492;2024-01-07T06:58:44;22.30;58.70
74153;DHT22;62505;46.070;14.492;2024-01-07T07:01:12;22.30;58.60
74153;DHT22;62505;46.070;14.492;2024-01-07T07:03:40;22.30;58.50
74153;DHT22;62505;46.070;14.492;2024-01-07T07:06:07;22.30;58.50
74153;DHT22;62505;46.070;14.492;2024-01-07T07:08:34;22.30;58.20
74153;DHT22;62505;46.070;14.492;2024-01-07T07:11:01;22.30;58.20
74153;DHT22;62505;46.070;14.492;2024-01-07T07:13:28;22.30;58.40
74153;DHT22;62505;46.070;14.492;2024-01-07T07:15:55;22.30;58.30
74153;DHT22;62505;46.070;14.492;2024-01-07T07:18:24;22.30;58.20
74153;DHT22;62505;46.070;14.492;2024-01-07T07:20:51;22.30;58.40
74153;DHT22;62505;46.070;14.492;2024-01-07T07:23:18;22.30;58.20
74153;DHT22;62505;46.070;14.492;2024-01-07T07:25:45;22.30;58.50
74153;DHT22;62505;46.070;14.492;2024-01-07T07:28:12;22.30;58.20
74153;DHT22;62505;46.070;14.492;2024-01-07T07:30:39;22.30;58.10
74153;DHT22;62505;46.070;14.492;2024-01-07T07:33:06;22.30;58.10
74153;DHT22;62505;46.070;14.492;2024-01-07T07:35:35;22.30;58.20
74153;DHT22;62505;46.070;14.492;2024-01-07T07:38:04;22.30;58.20
74153;DHT22;62505;46.070;14.492;2024-01-07T07:40:31;22.30;58.20
74153;DHT22;62505;46.070;14.492;2024-01-07T07:42:58;22.30;58.10
74153;DHT22;62505;46.070;14.492;2024-01-07T07:45:25;22.30;58.10
74153;DHT22;62505;46.070;14.492;2024-01-07T07:47:52;22.30;58.10
74153;DHT22;62505;46.070;14.492;2024-01-07T07:50:19;22.30;58.10
74153;DHT22;62505;46.070;14.492;2024-01-07T07:52:49;22.30;58.30
74153;DHT22;62505;46.070;14.492;2024-01-07T07:55:16;22.30;58.10
74153;DHT22;62505;46.070;14.492;2024-01-07T07:57:43;22.30;57.90
74153;DHT22;62505;46.070;14.492;2024-01-07T08:00:12;22.30;58.30
74153;DHT22;62505;46.070;14.492;2024-01-07T08:02:39;22.30;58.00
74153;DHT22;62505;46.070;14.492;2024-01-07T08:05:07;22.30;58.00
74153;DHT22;62505;46.070;14.492;2024-01-07T08:07:34;22.30;58.40
74153;DHT22;62505;46.070;14.492;2024-01-07T08:10:06;22.30;58.20
74153;DHT22;62505;46.070;14.492;2024-01-07T08:12:35;22.30;58.20
74153;DHT22;62505;46.070;14.492;2024-01-07T08:15:02;22.30;58.30
74153;DHT22;62505;46.070;14.492;2024-01-07T08:17:30;22.30;58.10
74153;DHT22;62505;46.070;14.492;2024-01-07T08:19:57;22.30;58.50
74153;DHT22;62505;46.070;14.492;2024-01-07T08:22:24;22.30;58.20
74153;DHT22;62505;46.070;14.492;2024-01-07T08:24:51;22.30;59.30
74153;DHT22;62505;46.070;14.492;2024-01-07T08:27:21;22.30;58.80
74153;DHT22;62505;46.070;14.492;2024-01-07T08:29:47;22.30;58.90
74153;DHT22;62505;46.070;14.492;2024-01-07T08:32:14;22.30;59.50
74153;DHT22;62505;46.070;14.492;2024-01-07T08:34:41;22.30;59.10
74153;DHT22;62505;46.070;14.492;2024-01-07T08:37:08;22.30;59.10
74153;DHT22;62505;46.070;14.492;2024-01-07T08:39:35;22.30;59.10
74153;DHT22;62505;46.070;14.492;2024-01-07T08:42:02;22.30;59.30
74153;DHT22;62505;46.070;14.492;2024-01-07T08:44:31;22.30;59.40
74153;DHT22;62505;46.070;14.492;2024-01-07T08:46:58;22.30;59.40
74153;DHT22;62505;46.070;14.492;2024-01-07T08:49:28;22.30;59.50
74153;DHT22;62505;46.070;14.492;2024-01-07T08:51:55;22.30;60.20
74153;DHT22;62505;46.070;14.492;2024-01-07T08:54:22;22.30;59.60
74153;DHT22;62505;46.070;14.492;2024-01-07T08:56:49;22.30;59.70
74153;DHT22;62505;46.070;14.492;2024-01-07T08:59:16;22.30;59.70
74153;DHT22;62505;46.070;14.492;2024-01-07T09:01:45;22.30;60.50
74153;DHT22;62505;46.070;14.492;2024-01-07T09:04:12;22.30;60.00
74153;DHT22;62505;46.070;14.492;2024-01-07T09:06:39;22.30;59.90
74153;DHT22;62505;46.070;14.492;2024-01-07T09:09:06;22.30;60.20
74153;DHT22;62505;46.070;14.492;2024-01-07T09:11:33;22.30;60.30
74153;DHT22;62505;46.070;14.492;2024-01-07T09:14:02;22.30;60.50
74153;DHT22;62505;46.070;14.492;2024-01-07T09:16:30;22.30;60.60
74153;DHT22;62505;46.070;14.492;2024-01-07T09:18:58;22.30;60.70
74153;DHT22;62505;46.070;14.492;2024-01-07T09:21:25;22.30;60.80
74153;DHT22;62505;46.070;14.492;2024-01-07T09:23:52;22.30;60.80
74153;DHT22;62505;46.070;14.492;2024-01-07T09:26:19;22.30;60.90
74153;DHT22;62505;46.070;14.492;2024-01-07T09:28:46;22.30;60.90
74153;DHT22;62505;46.070;14.492;2024-01-07T09:31:13;22.30;60.90
74153;DHT22;62505;46.070;14.492;2024-01-07T09:33:41;22.30;61.50
74153;DHT22;62505;46.070;14.492;2024-01-07T09:36:09;22.40;62.60
74153;DHT22;62505;46.070;14.492;2024-01-07T09:38:37;22.40;64.80
74153;DHT22;62505;46.070;14.492;2024-01-07T09:41:04;22.40;66.00
74153;DHT22;62505;46.070;14.492;2024-01-07T09:43:31;22.40;65.20
74153;DHT22;62505;46.070;14.492;2024-01-07T09:45:59;22.40;64.80
74153;DHT22;62505;46.070;14.492;2024-01-07T09:48:26;22.40;65.20
74153;DHT22;62505;46.070;14.492;2024-01-07T09:50:53;22.40;64.90
74153;DHT22;62505;46.070;14.492;2024-01-07T09:53:25;22.40;64.60
74153;DHT22;62505;46.070;14.492;2024-01-07T09:55:57;22.40;65.60
74153;DHT22;62505;46.070;14.492;2024-01-07T09:58:28;22.40;63.70
74153;DHT22;62505;46.070;14.492;2024-01-07T10:00:55;22.40;64.80
74153;DHT22;62505;46.070;14.492;2024-01-07T10:03:22;22.40;63.60
74153;DHT22;62505;46.070;14.492;2024-01-07T10:05:50;22.40;65.80
74153;DHT22;62505;46.070;14.492;2024-01-07T10:08:17;22.50;66.20
74153;DHT22;62505;46.070;14.492;2024-01-07T10:10:46;22.50;66.30
74153;DHT22;62505;46.070;14.492;2024-01-07T10:13:15;22.50;65.80
74153;DHT22;62505;46.070;14.492;2024-01-07T10:15:42;22.60;67.50
74153;DHT22;62505;46.070;14.492;2024-01-07T10:18:09;22.60;66.30
74153;DHT22;62505;46.070;14.492;2024-01-07T10:20:36;22.60;66.90
74153;DHT22;62505;46.070;14.492;2024-01-07T10:23:04;22.60;66.10
74153;DHT22;62505;46.070;14.492;2024-01-07T10:25:33;22.50;66.30
74153;DHT22;62505;46.070;14.492;2024-01-07T10:28:02;22.60;67.00
74153;DHT22;62505;46.070;14.492;2024-01-07T10:30:29;22.50;66.70
74153;DHT22;62505;46.070;14.492;2024-01-07T10:32:58;22.50;66.70
74153;DHT22;62505;46.070;14.492;2024-01-07T10:35:28;22.50;64.30
74153;DHT22;62505;46.070;14.492;2024-01-07T10:37:56;22.50;65.40
74153;DHT22;62505;46.070;14.492;2024-01-07T10:40:23;22.40;58.70
74153;DHT22;62505;46.070;14.492;2024-01-07T10:42:52;22.30;53.00
74153;DHT22;62505;46.070;14.492;2024-01-07T10:45:22;22.00;50.00
74153;DHT22;62505;46.070;14.492;2024-01-07T10:47:51;21.90;49.10
74153;DHT22;62505;46.070;14.492;2024-01-07T10:50:20;21.70;48.30
74153;DHT22;62505;46.070;14.492;2024-01-07T10:52:49;21.60;48.40
74153;DHT22;62505;46.070;14.492;2024-01-07T10:55:18;21.40;47.80
74153;DHT22;62505;46.070;14.492;2024-01-07T10:57:47;21.40;47.70
74153;DHT22;62505;46.070;14.492;2024-01-07T11:00:16;21.30;47.40
74153;DHT22;62505;46.070;14.492;2024-01-07T11:03:00;21.20;47.90
74153;DHT22;62505;46.070;14.492;2024-01-07T11:05:36;21.10;47.30
74153;DHT22;62505;46.070;14.492;2024-01-07T11:08:06;21.00;47.00
74153;DHT22;62505;46.070;14.492;2024-01-07T11:10:41;21.00;46.70
74153;DHT22;62505;46.070;14.492;2024-01-07T11:13:09;20.90;47.50
74153;DHT22;62505;46.070;14.492;2024-01-07T11:15:52;20.80;46.70
74153;DHT22;62505;46.070;14.492;2024-01-07T11:18:22;20.80;47.00
74153;DHT22;62505;46.070;14.492;2024-01-07T11:20:50;20.70;46.50
74153;DHT22;62505;46.070;14.492;2024-01-07T11:23:27;20.70;46.90
74153;DHT22;62505;46.070;14.492;2024-01-07T11:25:56;20.60;46.50
74153;DHT22;62505;46.070;14.492;2024-01-07T11:28:44;20.60;46.80
74153;DHT22;62505;46.070;14.492;2024-01-07T11:31:11;20.50;46.30
74153;DHT22;62505;46.070;14.492;2024-01-07T11:33:42;20.50;46.20
74153;DHT22;62505;46.070;14.492;2024-01-07T11:36:11;20.40;46.10
74153;DHT22;62505;46.070;14.492;2024-01-07T11:38:40;20.40;46.40
74153;DHT22;62505;46.070;14.492;2024-01-07T11:41:08;20.30;46.40
74153;DHT22;62505;46.070;14.492;2024-01-07T11:43:36;20.30;46.40
74153;DHT22;62505;46.070;14.492;2024-01-07T11:46:03;20.30;47.00
74153;DHT22;62505;46.070;14.492;2024-01-07T11:48:30;20.30;46.80
74153;DHT22;62505;46.070;14.492;2024-01-07T11:50:59;20.30;46.60
74153;DHT22;62505;46.070;14.492;2024-01-07T11:53:26;20.30;46.40
74153;DHT22;62505;46.070;14.492;2024-01-07T11:55:53;20.20;46.20
74153;DHT22;62505;46.070;14.492;2024-01-07T11:58:20;20.30;55.30
74153;DHT22;62505;46.070;14.492;2024-01-07T12:00:47;20.70;60.10
74153;DHT22;62505;46.070;14.492;2024-01-07T12:03:15;20.90;59.30
74153;DHT22;62505;46.070;14.492;2024-01-07T12:05:42;21.10;59.20
74153;DHT22;62505;46.070;14.492;2024-01-07T12:08:11;21.30;59.10
74153;DHT22;62505;46.070;14.492;2024-01-07T12:10:38;21.40;58.80
74153;DHT22;62505;46.070;14.492;2024-01-07T12:13:05;21.40;59.10
74153;DHT22;62505;46.070;14.492;2024-01-07T12:15:32;21.40;57.80
74153;DHT22;62505;46.070;14.492;2024-01-07T12:17:59;21.40;57.60
74153;DHT22;62505;46.070;14.492;2024-01-07T12:20:27;21.50;57.50
74153;DHT22;62505;46.070;14.492;2024-01-07T12:22:56;21.50;57.70
74153;DHT22;62505;46.070;14.492;2024-01-07T12:25:26;21.50;57.90
74153;DHT22;62505;46.070;14.492;2024-01-07T12:27:53;21.60;58.80
74153;DHT22;62505;46.070;14.492;2024-01-07T12:30:20;21.60;59.40
74153;DHT22;62505;46.070;14.492;2024-01-07T12:32:51;21.70;59.60
74153;DHT22;62505;46.070;14.492;2024-01-07T12:35:33;21.70;59.40
74153;DHT22;62505;46.070;14.492;2024-01-07T12:38:02;21.70;59.80
74153;DHT22;62505;46.070;14.492;2024-01-07T12:40:30;21.70;60.30
74153;DHT22;62505;46.070;14.492;2024-01-07T12:42:57;21.70;60.10
74153;DHT22;62505;46.070;14.492;2024-01-07T12:45:24;21.70;60.70
74153;DHT22;62505;46.070;14.492;2024-01-07T12:47:51;21.70;60.90
74153;DHT22;62505;46.070;14.492;2024-01-07T12:50:20;21.70;61.30
74153;DHT22;62505;46.070;14.492;2024-01-07T12:52:48;21.80;62.10
74153;DHT22;62505;46.070;14.492;2024-01-07T12:55:15;21.80;62.10
74153;DHT22;62505;46.070;14.492;2024-01-07T12:57:44;21.80;61.80
74153;DHT22;62505;46.070;14.492;2024-01-07T13:00:11;21.80;61.90
74153;DHT22;62505;46.070;14.492;2024-01-07T13:02:39;21.70;62.10
74153;DHT22;62505;46.070;14.492;2024-01-07T13:05:07;21.70;63.00
74153;DHT22;62505;46.070;14.492;2024-01-07T13:07:34;21.70;65.20
74153;DHT22;62505;46.070;14.492;2024-01-07T13:10:01;21.70;66.80
74153;DHT22;62505;46.070;14.492;2024-01-07T13:12:28;21.70;67.40
74153;DHT22;62505;46.070;14.492;2024-01-07T13:14:56;21.70;66.90
74153;DHT22;62505;46.070;14.492;2024-01-07T13:17:23;21.80;67.60
74153;DHT22;62505;46.070;14.492;2024-01-07T13:19:50;21.80;63.60
74153;DHT22;62505;46.070;14.492;2024-01-07T13:22:18;21.80;71.20
74153;DHT22;62505;46.070;14.492;2024-01-07T13:24:45;21.80;69.60
74153;DHT22;62505;46.070;14.492;2024-01-07T13:27:12;21.80;69.20
74153;DHT22;62505;46.070;14.492;2024-01-07T13:29:38;21.80;70.70
74153;DHT22;62505;46.070;14.492;2024-01-07T13:32:08;21.80;73.80
74153;DHT22;62505;46.070;14.492;2024-01-07T13:34:35;21.80;72.10
74153;DHT22;62505;46.070;14.492;2024-01-07T13:37:02;21.80;70.70
74153;DHT22;62505;46.070;14.492;2024-01-07T13:39:30;21.90;71.90
74153;DHT22;62505;46.070;14.492;2024-01-07T13:41:57;21.90;74.30
74153;DHT22;62505;46.070;14.492;2024-01-07T13:44:24;21.90;74.50
74153;DHT22;62505;46.070;14.492;2024-01-07T13:46:51;21.90;73.40
74153;DHT22;62505;46.070;14.492;2024-01-07T13:49:20;21.90;72.30
74153;DHT22;62505;46.070;14.492;2024-01-07T13:51:47;21.90;73.20
74153;DHT22;62505;46.070;14.492;2024-01-07T13:54:14;21.90;75.90
74153;DHT22;62505;46.070;14.492;2024-01-07T13:56:42;21.90;75.30
74153;DHT22;62505;46.070;14.492;2024-01-07T13:59:10;21.90;77.20
74153;DHT22;62505;46.070;14.492;2024-01-07T14:01:37;22.00;75.70
74153;DHT22;62505;46.070;14.492;2024-01-07T14:04:05;22.00;76.30
74153;DHT22;62505;46.070;14.492;2024-01-07T14:06:33;22.00;77.00
74153;DHT22;62505;46.070;14.492;2024-01-07T14:09:00;22.00;74.60
74153;DHT22;62505;46.070;14.492;2024-01-07T14:11:28;22.00;75.60
74153;DHT22;62505;46.070;14.492;2024-01-07T14:13:55;22.00;76.60
74153;DHT22;62505;46.070;14.492;2024-01-07T14:16:22;22.00;76.70
74153;DHT22;62505;46.070;14.492;2024-01-07T14:18:49;22.00;74.60
74153;DHT22;62505;46.070;14.492;2024-01-07T14:21:16;22.10;75.70
74153;DHT22;62505;46.070;14.492;2024-01-07T14:23:45;22.00;75.00
74153;DHT22;62505;46.070;14.492;2024-01-07T14:26:13;22.00;74.10
74153;DHT22;62505;46.070;14.492;2024-01-07T14:28:40;22.00;75.00
74153;DHT22;62505;46.070;14.492;2024-01-07T14:31:07;22.10;76.20
74153;DHT22;62505;46.070;14.492;2024-01-07T14:33:34;22.10;76.90
74153;DHT22;62505;46.070;14.492;2024-01-07T14:36:02;22.10;76.60
74153;DHT22;62505;46.070;14.492;2024-01-07T14:38:30;22.10;76.10
74153;DHT22;62505;46.070;14.492;2024-01-07T14:40:58;22.10;76.60
74153;DHT22;62505;46.070;14.492;2024-01-07T14:43:25;22.20;75.80
74153;DHT22;62505;46.070;14.492;2024-01-07T14:45:52;22.20;74.80
74153;DHT22;62505;46.070;14.492;2024-01-07T14:48:19;22.20;73.90
74153;DHT22;62505;46.070;14.492;2024-01-07T14:50:47;22.20;72.90
74153;DHT22;62505;46.070;14.492;2024-01-07T14:53:14;22.20;69.60
74153;DHT22;62505;46.070;14.492;2024-01-07T14:55:41;22.10;70.20
74153;DHT22;62505;46.070;14.492;2024-01-07T14:58:09;22.10;73.50
74153;DHT22;62505;46.070;14.492;2024-01-07T15:00:36;22.10;75.60
74153;DHT22;62505;46.070;14.492;2024-01-07T15:03:03;22.20;70.60
74153;DHT22;62505;46.070;14.492;2024-01-07T15:05:29;22.10;68.30
74153;DHT22;62505;46.070;14.492;2024-01-07T15:07:56;22.10;69.00
74153;DHT22;62505;46.070;14.492;2024-01-07T15:10:23;22.10;68.60
74153;DHT22;62505;46.070;14.492;2024-01-07T15:12:50;22.10;68.80
74153;DHT22;62505;46.070;14.492;2024-01-07T15:15:18;22.10;68.90
74153;DHT22;62505;46.070;14.492;2024-01-07T15:17:47;22.10;68.80